Time;durP1;ratioP1;P1;durP2;ratioP2;P2;SDS_P1;SDS_P2;PMS_P1;PMS_P2;Temp;Humidity;BMP_temperature;BMP_pressure;BME280_temperature;BME280_humidity;BME280_pressure;Samples;Min_cycle;Max_cycle;Signal;HPM_P1;HPM_P2
2021/08/08 00:00:33;;;;;;;1999.90;999.90;;;17.50;99.90;;;;;;5012556;28;20532;-68
2021/08/08 00:02:58;;;;;;;1999.90;999.90;;;17.50;99.90;;;;;;5012880;28;20179;-68
2021/08/08 00:05:24;;;;;;;1999.90;999.90;;;17.50;99.90;;;;;;5012420;28;20645;-68
2021/08/08 00:07:50;;;;;;;1999.90;999.90;;;17.40;99.90;;;;;;5012804;28;20167;-68
2021/08/08 00:10:15;;;;;;;1999.90;999.90;;;17.40;99.90;;;;;;5012744;28;20171;-69
2021/08/08 00:12:42;;;;;;;1999.90;999.90;;;17.30;99.90;;;;;;5012685;28;20180;-68
2021/08/08 00:15:09;;;;;;;1999.90;999.90;;;17.30;99.90;;;;;;5012255;28;20207;-68
2021/08/08 00:17:36;;;;;;;1999.90;999.90;;;17.30;99.90;;;;;;5012842;28;20887;-68
2021/08/08 00:20:03;;;;;;;1999.90;999.90;;;17.30;99.90;;;;;;5012528;28;20922;-69
2021/08/08 00:22:28;;;;;;;1999.90;999.90;;;17.30;99.90;;;;;;5012467;28;20420;-68
2021/08/08 00:24:54;;;;;;;1999.90;999.90;;;17.30;99.90;;;;;;5012163;28;20428;-68
2021/08/08 00:27:19;;;;;;;1999.90;999.90;;;17.30;99.90;;;;;;5012517;28;20694;-69
2021/08/08 00:29:45;;;;;;;1999.90;999.90;;;17.30;99.90;;;;;;5012426;28;20371;-68
2021/08/08 00:32:11;;;;;;;1999.90;999.90;;;17.30;99.90;;;;;;5012418;28;20195;-68
2021/08/08 00:34:36;;;;;;;1999.90;999.90;;;17.30;99.90;;;;;;5011951;28;20206;-68
2021/08/08 00:37:02;;;;;;;1999.90;999.90;;;17.30;99.90;;;;;;5012360;28;20552;-68
2021/08/08 00:39:28;;;;;;;1999.90;999.90;;;17.30;99.90;;;;;;5012226;28;20213;-68
2021/08/08 00:41:54;;;;;;;1999.90;999.90;;;17.30;99.90;;;;;;5012220;28;20853;-68
2021/08/08 00:44:20;;;;;;;1999.90;999.90;;;17.30;99.90;;;;;;5011900;28;20523;-68
2021/08/08 00:46:45;;;;;;;1999.90;999.90;;;17.30;99.90;;;;;;5012261;28;20175;-68
2021/08/08 00:49:12;;;;;;;1999.90;999.90;;;17.30;99.90;;;;;;5012196;28;20423;-68
2021/08/08 00:51:39;;;;;;;1999.90;999.90;;;17.30;99.90;;;;;;5012210;28;20531;-69
2021/08/08 00:54:05;;;;;;;1999.90;999.90;;;17.30;99.90;;;;;;5011654;28;20462;-68
2021/08/08 00:56:30;;;;;;;1999.90;999.90;;;17.30;99.90;;;;;;5012149;28;20420;-68
2021/08/08 00:58:57;;;;;;;1999.90;999.90;;;17.30;99.90;;;;;;5012237;28;20439;-68
2021/08/08 01:01:27;;;;;;;1999.90;999.90;;;17.30;99.90;;;;;;5012084;28;20412;-68
2021/08/08 01:03:54;;;;;;;1999.90;999.90;;;17.30;99.90;;;;;;5011671;28;20439;-68
2021/08/08 01:06:24;;;;;;;1999.90;999.90;;;17.30;99.90;;;;;;5012034;28;20412;-68
2021/08/08 01:08:57;;;;;;;1999.90;999.90;;;17.30;99.90;;;;;;5012087;28;20507;-68
2021/08/08 01:11:24;;;;;;;1999.90;999.90;;;17.30;99.90;;;;;;5012631;28;20502;-68
2021/08/08 01:13:51;;;;;;;1999.90;999.90;;;17.30;99.90;;;;;;5015674;28;20524;-69
2021/08/08 01:16:20;;;;;;;1999.90;999.90;;;17.30;99.90;;;;;;5015989;28;20404;-68
2021/08/08 01:18:47;;;;;;;1999.90;999.90;;;17.30;99.90;;;;;;5015898;28;20822;-68
2021/08/08 01:21:13;;;;;;;1999.90;999.90;;;17.30;99.90;;;;;;5015884;28;20409;-68
2021/08/08 01:23:40;;;;;;;1999.90;999.90;;;17.30;99.90;;;;;;5015814;28;20885;-68
2021/08/08 01:26:07;;;;;;;1999.90;999.90;;;17.30;99.90;;;;;;5015702;28;20451;-68
2021/08/08 01:28:33;;;;;;;1999.90;999.90;;;17.30;99.90;;;;;;5015770;28;20820;-68
2021/08/08 01:30:58;;;;;;;1999.90;999.90;;;17.30;99.90;;;;;;5015571;28;20432;-69
2021/08/08 01:33:24;;;;;;;1999.90;999.90;;;17.30;99.90;;;;;;5015467;28;20287;-68
2021/08/08 01:35:51;;;;;;;1999.90;999.90;;;17.30;99.90;;;;;;5015287;28;20170;-69
2021/08/08 01:38:19;;;;;;;1999.90;999.90;;;17.30;99.90;;;;;;5015593;28;20678;-69
2021/08/08 01:40:50;;;;;;;1999.90;999.90;;;17.30;99.90;;;;;;5015538;28;20415;-68
2021/08/08 01:43:24;;;;;;;1999.90;999.90;;;17.20;99.90;;;;;;5015419;28;20412;-69
2021/08/08 01:45:51;;;;;;;1999.90;999.90;;;17.30;99.90;;;;;;5015185;28;20753;-68
2021/08/08 01:48:18;;;;;;;1999.90;999.90;;;17.20;99.90;;;;;;5015392;28;20420;-69
2021/08/08 01:50:44;;;;;;;1999.90;999.90;;;17.10;99.90;;;;;;5015490;28;20416;-69
2021/08/08 01:53:11;;;;;;;1999.90;999.90;;;17.20;99.90;;;;;;5015216;28;20411;-68
2021/08/08 01:55:37;;;;;;;1999.90;999.90;;;17.10;99.90;;;;;;5015038;28;20457;-68
2021/08/08 01:58:05;;;;;;;1999.90;999.90;;;17.10;99.90;;;;;;5015151;28;20424;-68
2021/08/08 02:00:31;;;;;;;1999.90;999.90;;;17.00;99.90;;;;;;5015147;28;20492;-68
2021/08/08 02:02:58;;;;;;;1999.90;999.90;;;17.00;99.90;;;;;;5015064;28;20398;-69
2021/08/08 02:05:29;;;;;;;1999.90;999.90;;;17.00;99.90;;;;;;5014720;28;20909;-69
2021/08/08 02:07:55;;;;;;;1999.90;999.90;;;16.90;99.90;;;;;;5015008;28;20909;-69
2021/08/08 02:10:21;;;;;;;1999.90;999.90;;;16.90;99.90;;;;;;5015040;28;20414;-68
2021/08/08 02:12:47;;;;;;;1999.90;999.90;;;16.90;99.90;;;;;;5014958;28;20563;-68
2021/08/08 02:15:13;;;;;;;1999.90;999.90;;;16.90;99.90;;;;;;5014444;28;20494;-68
2021/08/08 02:17:40;;;;;;;1999.90;999.90;;;16.90;99.90;;;;;;5014835;28;20195;-68
2021/08/08 02:20:10;;;;;;;1999.90;999.90;;;16.90;99.90;;;;;;5014732;28;20400;-68
2021/08/08 02:22:37;;;;;;;1999.90;999.90;;;16.80;99.90;;;;;;5014639;28;20431;-68
2021/08/08 02:25:04;;;;;;;1999.90;999.90;;;16.80;99.90;;;;;;5014337;28;20428;-69
2021/08/08 02:27:31;;;;;;;1999.90;999.90;;;16.80;99.90;;;;;;5014615;28;20415;-68
2021/08/08 02:29:56;;;;;;;1999.90;999.90;;;16.80;99.90;;;;;;5014546;28;21181;-68
2021/08/08 02:32:22;;;;;;;1999.90;999.90;;;16.80;99.90;;;;;;5014405;28;20430;-68
2021/08/08 02:34:48;;;;;;;1999.90;999.90;;;16.80;99.90;;;;;;5014120;28;20209;-68
2021/08/08 02:37:13;;;;;;;1999.90;999.90;;;16.80;99.90;;;;;;5014410;28;20463;-68
2021/08/08 02:39:39;;;;;;;1999.90;999.90;;;16.80;99.90;;;;;;5014437;28;20174;-68
2021/08/08 02:42:05;;;;;;;1999.90;999.90;;;16.80;99.90;;;;;;5014489;28;20630;-68
2021/08/08 02:44:30;;;;;;;1999.90;999.90;;;16.80;99.90;;;;;;5013936;28;20204;-68
2021/08/08 02:46:56;;;;;;;1999.90;999.90;;;16.80;99.90;;;;;;5014259;28;20691;-68
2021/08/08 02:49:22;;;;;;;1999.90;999.90;;;16.70;99.90;;;;;;5014250;28;20219;-68
2021/08/08 02:51:48;;;;;;;1999.90;999.90;;;16.80;99.90;;;;;;5014322;28;20182;-68
2021/08/08 02:54:14;;;;;;;1999.90;999.90;;;16.70;99.90;;;;;;5013663;28;20469;-69
2021/08/08 02:56:43;;;;;;;1999.90;999.90;;;16.70;99.90;;;;;;5014151;28;20169;-68
2021/08/08 02:59:09;;;;;;;1999.90;999.90;;;16.70;99.90;;;;;;5014038;28;20401;-68
2021/08/08 03:01:34;;;;;;;1999.90;999.90;;;16.70;99.90;;;;;;5013983;28;20798;-68
2021/08/08 03:04:00;;;;;;;1999.90;999.90;;;16.70;99.90;;;;;;5013589;28;20193;-68
2021/08/08 03:06:26;;;;;;;1999.90;999.90;;;16.60;99.90;;;;;;5013958;28;20638;-68
2021/08/08 03:08:51;;;;;;;1999.90;999.90;;;16.60;99.90;;;;;;5013844;28;20173;-68
2021/08/08 03:11:17;;;;;;;1999.90;999.90;;;16.60;99.90;;;;;;5013835;28;20261;-68
2021/08/08 03:13:43;;;;;;;1999.90;999.90;;;16.60;99.90;;;;;;5013432;28;20221;-68
2021/08/08 03:16:09;;;;;;;1999.90;999.90;;;16.60;99.90;;;;;;5013619;28;20409;-68
2021/08/08 03:18:35;;;;;;;1999.90;999.90;;;16.50;99.90;;;;;;5013680;28;20259;-69
2021/08/08 03:21:01;;;;;;;1999.90;999.90;;;16.60;99.90;;;;;;5013611;28;20177;-68
2021/08/08 03:23:26;;;;;;;1999.90;999.90;;;16.60;99.90;;;;;;5013591;28;20408;-68
2021/08/08 03:25:52;;;;;;;1999.90;999.90;;;16.50;99.90;;;;;;5013254;28;20419;-68
2021/08/08 03:28:18;;;;;;;1999.90;999.90;;;16.50;99.90;;;;;;5013482;28;20196;-68
2021/08/08 03:30:44;;;;;;;1999.90;999.90;;;16.50;99.90;;;;;;5013314;28;20183;-68
2021/08/08 03:33:10;;;;;;;1999.90;999.90;;;16.40;99.90;;;;;;5013338;28;20172;-69
2021/08/08 03:35:36;;;;;;;1999.90;999.90;;;16.40;99.90;;;;;;5012436;28;20447;-68
2021/08/08 03:38:01;;;;;;;1999.90;999.90;;;16.30;99.90;;;;;;5013355;28;20171;-68
2021/08/08 03:40:27;;;;;;;1999.90;999.90;;;16.30;99.90;;;;;;5013334;28;20166;-68
2021/08/08 03:42:53;;;;;;;1999.90;999.90;;;16.30;99.90;;;;;;5013152;28;20254;-69
2021/08/08 03:45:19;;;;;;;1999.90;999.90;;;16.20;99.90;;;;;;5012991;28;20186;-69
2021/08/08 03:47:45;;;;;;;1999.90;999.90;;;16.20;99.90;;;;;;5013257;28;20184;-69
2021/08/08 03:50:11;;;;;;;1999.90;999.90;;;16.10;99.90;;;;;;5013229;28;20401;-69
2021/08/08 03:52:37;;;;;;;1999.90;999.90;;;16.10;99.90;;;;;;5013207;28;20233;-68
2021/08/08 03:55:03;;;;;;;1999.90;999.90;;;16.10;99.90;;;;;;5012600;28;20910;-68
2021/08/08 03:57:29;;;;;;;1999.90;999.90;;;16.10;99.90;;;;;;5013024;28;20412;-68
2021/08/08 03:59:54;;;;;;;1999.90;999.90;;;16.00;99.90;;;;;;5012949;28;20401;-68
2021/08/08 04:02:20;;;;;;;1999.90;999.90;;;16.00;99.90;;;;;;5012921;28;20183;-68
2021/08/08 04:04:45;;;;;;;1999.90;999.90;;;16.00;99.90;;;;;;5012516;28;20199;-68
2021/08/08 04:07:11;;;;;;;1999.90;999.90;;;16.00;99.90;;;;;;5013010;28;20170;-69
2021/08/08 04:09:36;;;;;;;1999.90;999.90;;;16.00;99.90;;;;;;5013097;28;20175;-68
2021/08/08 04:12:06;;;;;;;1999.90;999.90;;;16.00;99.90;;;;;;5013905;28;20166;-68
2021/08/08 04:14:32;;;;;;;1999.90;999.90;;;16.00;99.90;;;;;;5012208;28;20202;-68
2021/08/08 04:16:57;;;;;;;1999.90;999.90;;;16.00;99.90;;;;;;5012655;28;20454;-68
2021/08/08 04:19:23;;;;;;;1999.90;999.90;;;16.00;99.90;;;;;;5012645;28;20224;-68
2021/08/08 04:21:48;;;;;;;1999.90;999.90;;;16.00;99.90;;;;;;5012682;28;20195;-68
2021/08/08 04:24:14;;;;;;;1999.90;999.90;;;16.00;99.90;;;;;;5012175;28;20563;-69
2021/08/08 04:26:40;;;;;;;1999.90;999.90;;;16.00;99.90;;;;;;5012555;28;20214;-69
2021/08/08 04:29:05;;;;;;;1999.90;999.90;;;16.10;99.90;;;;;;5012486;28;20163;-68
2021/08/08 04:31:31;;;;;;;1999.90;999.90;;;16.10;99.90;;;;;;5012332;28;20196;-69
2021/08/08 04:33:56;;;;;;;1999.90;999.90;;;16.20;99.90;;;;;;5012014;28;20256;-68
2021/08/08 04:36:22;;;;;;;1999.90;999.90;;;16.30;99.90;;;;;;5012322;28;20240;-68
2021/08/08 04:38:47;;;;;;;1999.90;999.90;;;16.30;99.90;;;;;;5012356;28;20699;-68
2021/08/08 04:41:13;;;;;;;1999.90;999.90;;;16.30;99.90;;;;;;5012302;28;20250;-68
2021/08/08 04:43:38;;;;;;;1999.90;999.90;;;16.30;99.90;;;;;;5012168;28;20549;-68
2021/08/08 04:46:04;;;;;;;1999.90;999.90;;;16.40;99.90;;;;;;5011999;28;20180;-69
2021/08/08 04:48:30;;;;;;;1999.90;999.90;;;16.50;99.90;;;;;;5012295;28;20195;-68
2021/08/08 04:50:55;;;;;;;1999.90;999.90;;;16.40;99.90;;;;;;5012220;28;20171;-68
2021/08/08 04:53:21;;;;;;;1999.90;999.90;;;16.50;99.90;;;;;;5011982;28;20199;-68
2021/08/08 04:55:47;;;;;;;1999.90;999.90;;;16.50;99.90;;;;;;5011912;28;20157;-68
2021/08/08 04:58:13;;;;;;;1999.90;999.90;;;16.50;99.90;;;;;;5012072;28;20627;-68
2021/08/08 05:00:39;;;;;;;1999.90;999.90;;;16.60;99.90;;;;;;5012173;28;20431;-68
2021/08/08 05:03:05;;;;;;;1999.90;999.90;;;16.60;99.90;;;;;;5012117;28;20445;-68
2021/08/08 05:05:31;;;;;;;1999.90;999.90;;;16.60;99.90;;;;;;5011799;28;20194;-68
2021/08/08 05:07:57;;;;;;;1999.90;999.90;;;16.60;99.90;;;;;;5012076;28;20218;-68
2021/08/08 05:10:25;;;;;;;1999.90;999.90;;;16.70;99.90;;;;;;5011951;28;20488;-69
2021/08/08 05:12:53;;;;;;;1999.90;999.90;;;16.70;99.90;;;;;;5016264;28;20406;-68
2021/08/08 05:15:19;;;;;;;1999.90;999.90;;;16.70;99.90;;;;;;5000249;28;20807;-68
2021/08/08 05:17:45;;;;;;;1999.90;999.90;;;16.70;99.90;;;;;;5017503;28;20437;-68
2021/08/08 05:20:12;;;;;;;1999.90;999.90;;;16.70;99.90;;;;;;5017589;28;20477;-67
2021/08/08 05:22:37;;;;;;;1999.90;999.90;;;16.70;99.90;;;;;;5017663;28;20447;-69
2021/08/08 05:25:04;;;;;;;1999.90;999.90;;;16.70;99.90;;;;;;5017276;28;20815;-68
2021/08/08 05:27:33;;;;;;;1999.90;999.90;;;16.70;99.90;;;;;;5017591;28;20211;-68
2021/08/08 05:29:59;;;;;;;1999.90;999.90;;;16.60;99.90;;;;;;5016633;28;20409;-68
2021/08/08 05:32:25;;;;;;;1999.90;999.90;;;16.60;99.90;;;;;;5017424;28;20436;-69
2021/08/08 05:34:51;;;;;;;1999.90;999.90;;;16.60;99.90;;;;;;5016985;28;20472;-69
2021/08/08 05:37:16;;;;;;;1999.90;999.90;;;16.60;99.90;;;;;;5017954;28;20193;-69
2021/08/08 05:39:42;;;;;;;1999.90;999.90;;;16.60;99.90;;;;;;5017292;28;20441;-69
2021/08/08 05:42:07;;;;;;;1999.90;999.90;;;16.60;99.90;;;;;;5017536;28;20661;-68
2021/08/08 05:44:37;;;;;;;1999.90;999.90;;;16.60;99.90;;;;;;5016452;28;20194;-69
2021/08/08 05:47:04;;;;;;;1999.90;999.90;;;16.60;99.90;;;;;;5017501;28;20184;-69
2021/08/08 05:49:30;;;;;;;1999.90;999.90;;;16.60;99.90;;;;;;5017468;28;20415;-68
2021/08/08 05:51:55;;;;;;;1999.90;999.90;;;16.60;99.90;;;;;;5017634;28;20427;-68
2021/08/08 05:54:21;;;;;;;1999.90;999.90;;;16.60;99.90;;;;;;4999069;28;20217;-69
2021/08/08 05:56:47;;;;;;;1999.90;999.90;;;16.70;99.90;;;;;;5017119;28;20172;-69
2021/08/08 05:59:12;;;;;;;1999.90;999.90;;;16.70;99.90;;;;;;5020766;28;20621;-68
2021/08/08 06:01:38;;;;;;;1999.90;999.90;;;16.80;99.90;;;;;;5020789;28;20543;-68
2021/08/08 06:04:04;;;;;;;1999.90;999.90;;;16.80;99.90;;;;;;5020458;28;20191;-69
2021/08/08 06:06:32;;;;;;;1999.90;999.90;;;16.80;99.90;;;;;;5020645;28;20183;-69
2021/08/08 06:08:57;;;;;;;1999.90;999.90;;;16.80;99.90;;;;;;5019830;28;20175;-69
2021/08/08 06:11:23;;;;;;;1999.90;999.90;;;16.80;99.90;;;;;;5020288;28;20419;-69
2021/08/08 06:13:48;;;;;;;1999.90;999.90;;;16.90;99.90;;;;;;5019111;28;20274;-69
2021/08/08 06:16:14;;;;;;;1999.90;999.90;;;16.90;99.90;;;;;;5019502;28;20230;-68
2021/08/08 06:18:40;;;;;;;1999.90;999.90;;;16.90;99.90;;;;;;5020077;28;20227;-69
2021/08/08 06:21:05;;;;;;;1999.90;999.90;;;17.00;99.90;;;;;;5020368;28;20188;-70
2021/08/08 06:23:31;;;;;;;1999.90;999.90;;;17.00;99.90;;;;;;5020505;28;20500;-69
2021/08/08 06:25:57;;;;;;;1999.90;999.90;;;17.00;99.90;;;;;;5019478;28;20648;-69
2021/08/08 06:28:22;;;;;;;1999.90;999.90;;;17.00;99.90;;;;;;5020308;28;20651;-67
2021/08/08 06:30:48;;;;;;;1999.90;999.90;;;17.10;99.90;;;;;;5019099;28;20184;-69
2021/08/08 06:33:16;;;;;;;1999.90;999.90;;;17.00;99.90;;;;;;5018384;28;20238;-69
2021/08/08 06:35:42;;;;;;;1999.90;999.90;;;17.00;99.90;;;;;;5018366;28;20629;-68
2021/08/08 06:38:07;;;;;;;1999.90;999.90;;;17.00;99.90;;;;;;5019411;28;20447;-69
2021/08/08 06:40:33;;;;;;;1999.90;999.90;;;17.10;99.90;;;;;;5019061;28;20195;-69
2021/08/08 06:43:00;;;;;;;1999.90;999.90;;;17.00;99.90;;;;;;5019119;28;20227;-68
2021/08/08 06:45:25;;;;;;;1999.90;999.90;;;17.10;99.90;;;;;;5018773;28;20607;-69
2021/08/08 06:47:51;;;;;;;1999.90;999.90;;;17.10;99.90;;;;;;5018732;28;20401;-69
2021/08/08 06:50:17;;;;;;;1999.90;999.90;;;17.10;99.90;;;;;;5018919;28;20164;-67
2021/08/08 06:52:42;;;;;;;1999.90;999.90;;;17.20;99.90;;;;;;5018164;28;20314;-69
2021/08/08 06:55:09;;;;;;;1999.90;999.90;;;17.20;99.90;;;;;;5018549;28;20328;-69
2021/08/08 06:57:34;;;;;;;1999.90;999.90;;;17.20;99.90;;;;;;5018583;28;20657;-69
2021/08/08 07:00:00;;;;;;;1999.90;999.90;;;17.20;99.90;;;;;;5018104;28;20405;-69
2021/08/08 07:02:25;;;;;;;1999.90;999.90;;;17.30;99.90;;;;;;5018223;28;20600;-68
2021/08/08 07:04:51;;;;;;;1999.90;999.90;;;17.30;99.90;;;;;;5020805;28;20203;-68
2021/08/08 07:07:17;;;;;;;1999.90;999.90;;;17.30;99.90;;;;;;5019258;28;20176;-69
2021/08/08 07:09:43;;;;;;;1999.90;999.90;;;17.30;99.90;;;;;;5016958;28;20172;-69
2021/08/08 07:12:09;;;;;;;1999.90;999.90;;;17.30;99.90;;;;;;5018679;28;20593;-69
2021/08/08 07:14:35;;;;;;;1999.90;999.90;;;17.30;99.90;;;;;;5016845;28;20474;-69
2021/08/08 07:17:02;;;;;;;1999.90;999.90;;;17.30;99.90;;;;;;5017377;28;20399;-69
2021/08/08 07:19:28;;;;;;;1999.90;999.90;;;17.40;99.90;;;;;;5017762;28;20409;-69
2021/08/08 07:21:54;;;;;;;1999.90;999.90;;;17.40;99.90;;;;;;5018149;28;20396;-69
2021/08/08 07:24:20;;;;;;;1999.90;999.90;;;17.40;99.90;;;;;;5017551;28;20255;-69
2021/08/08 07:26:46;;;;;;;1999.90;999.90;;;17.40;99.90;;;;;;5017300;28;20480;-68
2021/08/08 07:29:11;;;;;;;1999.90;999.90;;;17.40;99.90;;;;;;5019060;28;20446;-69
2021/08/08 07:31:37;;;;;;;1999.90;999.90;;;17.40;99.90;;;;;;5017579;28;20191;-69
2021/08/08 07:34:02;;;;;;;1999.90;999.90;;;17.50;99.90;;;;;;5017127;28;20201;-69
2021/08/08 07:36:28;;;;;;;1999.90;999.90;;;17.40;99.90;;;;;;5018010;28;20177;-69
2021/08/08 07:38:54;;;;;;;1999.90;999.90;;;17.60;99.90;;;;;;5018223;28;20177;-69
2021/08/08 07:41:19;;;;;;;1999.90;999.90;;;17.60;99.90;;;;;;5018303;28;20346;-69
2021/08/08 07:43:45;;;;;;;1999.90;999.90;;;17.60;99.90;;;;;;5017796;28;20197;-69
2021/08/08 07:46:10;;;;;;;1999.90;999.90;;;17.70;99.90;;;;;;5018130;28;20207;-69
2021/08/08 07:48:36;;;;;;;1999.90;999.90;;;17.80;99.90;;;;;;5017929;28;20630;-68
2021/08/08 07:51:02;;;;;;;1999.90;999.90;;;17.80;99.90;;;;;;5017854;28;20213;-69
2021/08/08 07:53:27;;;;;;;1999.90;999.90;;;17.90;99.90;;;;;;5017115;28;20210;-69
2021/08/08 07:55:55;;;;;;;1999.90;999.90;;;18.00;99.90;;;;;;5018030;28;20164;-68
2021/08/08 07:58:24;;;;;;;1999.90;999.90;;;18.10;99.90;;;;;;5018382;28;20256;-68
2021/08/08 08:00:50;;;;;;;1999.90;999.90;;;18.10;99.90;;;;;;5019878;28;20471;-69
2021/08/08 08:03:16;;;;;;;1999.90;999.90;;;18.10;99.90;;;;;;5013551;28;20403;-68
2021/08/08 08:05:41;;;;;;;1999.90;999.90;;;18.20;99.90;;;;;;5012576;28;20405;-67
2021/08/08 08:08:07;;;;;;;1999.90;999.90;;;18.20;99.90;;;;;;5012677;28;20172;-68
2021/08/08 08:10:33;;;;;;;1999.90;999.90;;;18.30;99.90;;;;;;5012838;28;20164;-68
2021/08/08 08:13:00;;;;;;;1999.90;999.90;;;18.30;99.90;;;;;;5012759;28;20490;-68
2021/08/08 08:15:28;;;;;;;1999.90;999.90;;;18.20;99.90;;;;;;5012221;28;20213;-68
2021/08/08 08:17:56;;;;;;;1999.90;999.90;;;18.30;99.90;;;;;;5012647;28;20916;-68
2021/08/08 08:20:22;;;;;;;1999.90;999.90;;;18.50;99.90;;;;;;5012345;28;20415;-68
2021/08/08 08:22:48;;;;;;;1999.90;999.90;;;18.70;99.90;;;;;;5012569;28;20398;-68
2021/08/08 08:25:14;;;;;;;1999.90;999.90;;;18.80;99.90;;;;;;5012210;28;20512;-68
2021/08/08 08:27:41;;;;;;;1999.90;999.90;;;18.90;99.90;;;;;;5012529;28;20493;-68
2021/08/08 08:30:07;;;;;;;1999.90;999.90;;;18.80;99.90;;;;;;5012460;28;20404;-69
2021/08/08 08:32:33;;;;;;;1999.90;999.90;;;18.70;99.90;;;;;;5012385;28;20429;-68
2021/08/08 08:35:02;;;;;;;1999.90;999.90;;;18.70;99.90;;;;;;5013291;28;20452;-68
2021/08/08 08:37:28;;;;;;;1999.90;999.90;;;18.60;99.90;;;;;;5012396;28;20634;-68
2021/08/08 08:39:53;;;;;;;1999.90;999.90;;;18.50;99.90;;;;;;5012369;28;20488;-68
2021/08/08 08:42:19;;;;;;;1999.90;999.90;;;18.50;99.90;;;;;;5012427;28;20491;-68
2021/08/08 08:44:45;;;;;;;1999.90;999.90;;;18.60;99.90;;;;;;5011896;28;20186;-68
2021/08/08 08:47:14;;;;;;;1999.90;999.90;;;18.80;99.90;;;;;;5012350;28;20423;-68
2021/08/08 08:49:45;;;;;;;1999.90;999.90;;;18.90;99.90;;;;;;5015162;28;20412;-69
2021/08/08 08:52:12;;;;;;;1999.90;999.90;;;19.00;99.90;;;;;;5016915;28;20419;-68
2021/08/08 08:54:38;;;;;;;1999.90;999.90;;;18.90;99.90;;;;;;5014364;28;20456;-69
2021/08/08 08:57:06;;;;;;;1999.90;999.90;;;18.90;99.90;;;;;;5017311;28;20826;-68
2021/08/08 08:59:32;;;;;;;1999.90;999.90;;;18.90;99.90;;;;;;5016407;28;20187;-68
2021/08/08 09:01:58;;;;;;;1999.90;999.90;;;18.90;99.90;;;;;;5016747;28;20401;-69
2021/08/08 09:04:24;;;;;;;1999.90;999.90;;;19.00;99.90;;;;;;5017122;28;20522;-69
2021/08/08 09:06:49;;;;;;;1999.90;999.90;;;19.20;99.90;;;;;;5016243;28;20197;-69
2021/08/08 09:09:15;;;;;;;1999.90;999.90;;;19.30;99.90;;;;;;5016830;28;20175;-70
2021/08/08 09:11:43;;;;;;;1999.90;999.90;;;19.50;99.90;;;;;;5019039;28;20176;-69
2021/08/08 09:14:10;;;;;;;1999.90;999.90;;;19.60;99.90;;;;;;5018736;28;20528;-69
2021/08/08 09:16:43;;;;;;;1999.90;999.90;;;19.70;99.90;;;;;;5017028;28;20412;-69
2021/08/08 09:19:19;;;;;;;1999.90;999.90;;;19.70;99.90;;;;;;5013989;28;20439;-69
2021/08/08 09:21:45;;;;;;;1999.90;999.90;;;19.60;99.90;;;;;;4999946;28;20514;-68
2021/08/08 09:24:22;;;;;;;1999.90;999.90;;;19.50;99.90;;;;;;5016276;28;20433;-67
2021/08/08 09:26:47;;;;;;;1999.90;999.90;;;19.50;99.90;;;;;;5016114;28;20485;-69
2021/08/08 09:29:18;;;;;;;1999.90;999.90;;;19.70;99.90;;;;;;5016907;28;20508;-69
2021/08/08 09:31:49;;;;;;;1999.90;999.90;;;19.70;99.90;;;;;;5016581;28;20216;-69
2021/08/08 09:34:33;;;;;;;1999.90;999.90;;;19.50;99.90;;;;;;5020197;28;20898;-68
2021/08/08 09:37:01;;;;;;;1999.90;999.90;;;19.50;99.90;;;;;;5019972;28;20920;-68
2021/08/08 09:39:33;;;;;;;1999.90;999.90;;;19.50;99.90;;;;;;5018225;28;20411;-68
2021/08/08 09:42:05;;;;;;;1999.90;999.90;;;19.40;99.90;;;;;;5018748;28;20423;-68
2021/08/08 09:44:31;;;;;;;1999.90;999.90;;;19.30;99.90;;;;;;5017653;28;20527;-69
2021/08/08 09:46:57;;;;;;;1999.90;999.90;;;19.10;99.90;;;;;;5013193;28;20459;-68
2021/08/08 09:49:24;;;;;;;1999.90;999.90;;;19.10;99.90;;;;;;5006050;28;20198;-70
2021/08/08 09:51:51;;;;;;;1999.90;999.90;;;19.20;99.90;;;;;;5008660;28;20437;-67
2021/08/08 09:54:19;;;;;;;1999.90;999.90;;;19.40;99.90;;;;;;5008712;28;20467;-69
2021/08/08 09:56:45;;;;;;;1999.90;999.90;;;19.50;99.90;;;;;;5009221;28;20410;-66
2021/08/08 09:59:10;;;;;;;1999.90;999.90;;;19.60;99.90;;;;;;5009277;28;20502;-66
2021/08/08 10:01:40;;;;;;;1999.90;999.90;;;19.70;99.90;;;;;;5010052;28;20415;-67
2021/08/08 10:04:08;;;;;;;1999.90;999.90;;;20.00;99.90;;;;;;5009553;28;20230;-67
2021/08/08 10:06:36;;;;;;;1999.90;999.90;;;20.20;99.90;;;;;;5009751;28;20414;-67
2021/08/08 10:09:02;;;;;;;1999.90;999.90;;;20.30;99.90;;;;;;5010423;28;20438;-67
2021/08/08 10:11:29;;;;;;;1999.90;999.90;;;20.40;99.90;;;;;;5008769;28;20414;-67
2021/08/08 10:14:01;;;;;;;1999.90;999.90;;;20.60;99.90;;;;;;5009382;28;20846;-67
2021/08/08 10:16:34;;;;;;;1999.90;999.90;;;20.70;99.90;;;;;;5009879;28;20425;-67
2021/08/08 10:19:02;;;;;;;1999.90;999.90;;;20.70;99.90;;;;;;5009608;28;20415;-67
2021/08/08 10:21:31;;;;;;;1999.90;999.90;;;20.60;99.90;;;;;;5008865;28;20431;-67
2021/08/08 10:24:07;;;;;;;1999.90;999.90;;;20.60;99.90;;;;;;5009349;28;20473;-68
2021/08/08 10:26:33;;;;;;;1999.90;999.90;;;20.60;99.90;;;;;;5010500;28;20460;-70
2021/08/08 10:29:01;;;;;;;1999.90;999.90;;;20.50;99.90;;;;;;5010419;28;20415;-67
2021/08/08 10:31:29;;;;;;;1999.90;999.90;;;20.40;99.90;;;;;;5009849;28;20442;-68
2021/08/08 10:33:58;;;;;;;1999.90;999.90;;;20.40;99.90;;;;;;5009468;28;20519;-68
2021/08/08 10:36:28;;;;;;;1999.90;999.90;;;20.50;99.90;;;;;;5010197;28;20412;-67
2021/08/08 10:39:09;;;;;;;1999.90;999.90;;;20.60;99.90;;;;;;5009696;28;20408;-68
2021/08/08 10:41:36;;;;;;;1999.90;999.90;;;20.70;99.90;;;;;;5009452;28;20861;-68
2021/08/08 10:44:09;;;;;;;1999.90;999.90;;;20.60;99.90;;;;;;5009031;28;20452;-67
2021/08/08 10:46:55;;;;;;;1999.90;999.90;;;20.80;99.90;;;;;;5009542;28;20410;-69
2021/08/08 10:49:32;;;;;;;1999.90;999.90;;;20.90;99.90;;;;;;4991965;28;20949;-68
2021/08/08 10:52:06;;;;;;;1999.90;999.90;;;21.10;99.90;;;;;;5009434;28;20419;-67
2021/08/08 10:54:49;;;;;;;1999.90;999.90;;;21.20;99.90;;;;;;5008469;28;20493;-68
2021/08/08 10:57:16;;;;;;;1999.90;999.90;;;21.20;99.90;;;;;;5009499;28;20980;-67
2021/08/08 10:59:50;;;;;;;1999.90;999.90;;;21.10;99.90;;;;;;5009259;28;20416;-67
2021/08/08 11:02:27;;;;;;;1999.90;999.90;;;21.10;99.90;;;;;;5008777;28;20458;-69
2021/08/08 11:04:54;;;;;;;1999.90;999.90;;;21.10;99.90;;;;;;5008924;28;20813;-68
2021/08/08 11:07:29;;;;;;;1999.90;999.90;;;21.00;99.90;;;;;;5009348;28;20432;-68
2021/08/08 11:09:55;;;;;;;1999.90;999.90;;;20.90;99.90;;;;;;5008831;28;20417;-68
2021/08/08 11:12:32;;;;;;;1999.90;999.90;;;21.10;99.90;;;;;;5008717;28;20419;-67
2021/08/08 11:14:58;;;;;;;1999.90;999.90;;;21.20;99.90;;;;;;5008114;28;20474;-67
2021/08/08 11:17:27;;;;;;;1999.90;999.90;;;21.20;99.90;;;;;;5008468;28;20416;-68
2021/08/08 11:19:52;;;;;;;1999.90;999.90;;;21.20;99.90;;;;;;5008831;28;20429;-67
2021/08/08 11:22:19;;;;;;;1999.90;999.90;;;21.30;99.90;;;;;;5008088;28;20898;-67
2021/08/08 11:25:07;;;;;;;1999.90;999.90;;;21.20;99.90;;;;;;5008130;28;20512;-68
2021/08/08 11:27:43;;;;;;;1999.90;999.90;;;21.40;99.90;;;;;;5008270;28;20418;-68
2021/08/08 11:30:14;;;;;;;1999.90;999.90;;;21.60;99.90;;;;;;5008535;28;20412;-68
2021/08/08 11:32:41;;;;;;;1999.90;999.90;;;21.80;99.90;;;;;;5008143;28;20458;-69
2021/08/08 11:35:20;;;;;;;1999.90;999.90;;;22.20;99.90;;;;;;5008266;28;20456;-67
2021/08/08 11:37:50;;;;;;;1999.90;999.90;;;22.30;99.90;;;;;;5008723;28;20419;-68
2021/08/08 11:40:20;;;;;;;1999.90;999.90;;;22.20;99.90;;;;;;5008010;28;20416;-68
2021/08/08 11:42:47;;;;;;;1999.90;999.90;;;22.20;99.90;;;;;;5007635;28;20413;-69
2021/08/08 11:45:12;;;;;;;1999.90;999.90;;;22.10;99.90;;;;;;5008078;28;20443;-69
2021/08/08 11:47:38;;;;;;;1999.90;999.90;;;22.20;99.90;;;;;;5008067;28;20428;-67
2021/08/08 11:50:06;;;;;;;1999.90;999.90;;;21.90;99.90;;;;;;5007938;28;20493;-67
2021/08/08 11:52:32;;;;;;;1999.90;999.90;;;21.80;99.90;;;;;;5008272;28;20915;-68
2021/08/08 11:55:07;;;;;;;1999.90;999.90;;;22.10;99.90;;;;;;5007092;28;20487;-68
2021/08/08 11:57:34;;;;;;;1999.90;999.90;;;22.30;99.90;;;;;;5007945;28;20423;-67